createdAt,value
2023-03-20T00:00:33.660Z,13.73
2023-03-20T00:03:04.574Z,15.63
2023-03-20T00:05:33.712Z,15.90
2023-03-20T00:08:03.336Z,18.07
2023-03-20T00:10:41.735Z,22.47
2023-03-20T00:13:20.482Z,15.90
2023-03-20T00:15:49.797Z,15.67
2023-03-20T00:18:23.316Z,20.70
2023-03-20T00:20:56.263Z,16.30
2023-03-20T00:23:26.783Z,17.50
2023-03-20T00:25:55.962Z,13.37
2023-03-20T00:28:41.023Z,20.83
2023-03-20T00:31:16.708Z,17.40
2023-03-20T00:33:48.153Z,14.93
2023-03-20T00:36:16.167Z,15.33
2023-03-20T00:38:52.104Z,15.77
2023-03-20T00:41:33.251Z,20.50
2023-03-20T00:44:06.542Z,28.53
2023-03-20T00:46:39.193Z,31.37
2023-03-20T00:49:09.146Z,34.83
2023-03-20T00:51:38.659Z,22.07
2023-03-20T00:54:13.972Z,30.80
2023-03-20T00:56:50.598Z,31.80
2023-03-20T00:59:23.085Z,25.07
2023-03-20T01:01:51.428Z,23.20
2023-03-20T01:04:21.661Z,27.67
2023-03-20T01:06:53.022Z,22.93
2023-03-20T01:09:22.642Z,19.33
2023-03-20T01:11:54.047Z,20.97
2023-03-20T01:14:22.658Z,25.07
2023-03-20T01:16:53.661Z,25.50
2023-03-20T01:19:22.278Z,27.17
2023-03-20T01:21:51.034Z,25.87
2023-03-20T01:24:19.486Z,26.83
2023-03-20T01:26:49.549Z,28.70
2023-03-20T01:29:27.660Z,29.17
2023-03-20T01:31:59.354Z,25.87
2023-03-20T01:34:28.190Z,34.73
2023-03-20T01:36:58.546Z,25.40
2023-03-20T01:39:33.191Z,32.67
2023-03-20T01:42:01.968Z,30.93
2023-03-20T01:44:32.652Z,24.67
2023-03-20T01:47:02.439Z,25.90
2023-03-20T01:50:17.049Z,24.20
2023-03-20T01:52:46.663Z,32.73
2023-03-20T01:55:14.929Z,26.40
2023-03-20T01:57:43.172Z,38.03
2023-03-20T02:00:13.128Z,33.20
2023-03-20T02:02:42.565Z,27.07
2023-03-20T02:05:12.678Z,27.47
2023-03-20T02:07:41.295Z,29.00
2023-03-20T02:10:12.425Z,24.07
2023-03-20T02:12:43.646Z,25.23
2023-03-20T02:15:15.861Z,26.13
2023-03-20T02:17:45.439Z,35.43
2023-03-20T02:20:51.080Z,28.13
2023-03-20T02:23:31.309Z,35.87
2023-03-20T02:26:02.739Z,26.60
2023-03-20T02:28:54.151Z,31.73
2023-03-20T02:31:41.026Z,28.67
2023-03-20T02:34:49.990Z,32.57
2023-03-20T02:37:24.040Z,40.17
2023-03-20T02:40:09.100Z,39.03
2023-03-20T02:43:02.718Z,37.47
2023-03-20T02:45:58.218Z,32.80
2023-03-20T02:49:01.826Z,32.73
2023-03-20T02:51:49.083Z,31.23
2023-03-20T02:54:27.454Z,28.30
2023-03-20T02:57:06.562Z,37.10
2023-03-20T02:59:38.056Z,40.80
2023-03-20T03:02:16.256Z,43.87
2023-03-20T03:04:51.297Z,41.20
2023-03-20T03:07:27.104Z,39.23
2023-03-20T03:10:06.126Z,30.70
2023-03-20T03:12:41.470Z,42.60
2023-03-20T03:15:33.166Z,32.37
2023-03-20T03:18:07.659Z,43.93
2023-03-20T03:20:38.923Z,34.57
2023-03-20T03:23:07.639Z,36.00
2023-03-20T03:25:40.363Z,37.23
2023-03-20T03:28:39.211Z,33.53
2023-03-20T03:31:09.366Z,50.10
2023-03-20T03:33:40.652Z,34.37
2023-03-20T03:36:31.581Z,32.07
2023-03-20T03:39:14.681Z,40.93
2023-03-20T03:41:54.069Z,32.87
2023-03-20T03:44:39.221Z,43.83
2023-03-20T03:47:20.663Z,35.97
2023-03-20T03:49:52.900Z,36.90
2023-03-20T03:52:25.699Z,40.20
2023-03-20T03:55:06.614Z,47.00
2023-03-20T03:57:44.451Z,41.73
2023-03-20T04:00:18.904Z,41.67
2023-03-20T04:02:52.392Z,37.00
2023-03-20T04:05:32.062Z,35.90
2023-03-20T04:08:02.230Z,41.53
2023-03-20T04:10:33.074Z,35.57
2023-03-20T04:13:02.926Z,34.77
2023-03-20T04:15:31.377Z,32.20
2023-03-20T04:17:59.463Z,38.13
2023-03-20T04:20:27.832Z,38.50
2023-03-20T04:22:56.457Z,41.40
2023-03-20T04:25:31.418Z,40.37
2023-03-20T04:28:00.576Z,40.67
2023-03-20T04:30:28.544Z,34.33
2023-03-20T04:32:59.272Z,39.63
2023-03-20T04:35:27.622Z,44.47
2023-03-20T04:37:55.604Z,45.97
2023-03-20T04:40:23.446Z,38.73
2023-03-20T04:42:51.582Z,45.37
2023-03-20T04:45:20.823Z,33.27
2023-03-20T04:47:49.135Z,40.30
2023-03-20T04:50:17.313Z,39.77
2023-03-20T04:52:45.752Z,37.03
2023-03-20T04:55:16.541Z,35.07
2023-03-20T04:57:45.668Z,38.13
2023-03-20T05:00:14.192Z,35.63
2023-03-20T05:02:43.963Z,40.23
2023-03-20T05:05:12.851Z,35.13
2023-03-20T05:07:42.937Z,38.20
2023-03-20T05:10:11.837Z,32.23
2023-03-20T05:12:43.829Z,45.53
2023-03-20T05:15:15.101Z,36.67
2023-03-20T05:17:43.846Z,39.97
2023-03-20T05:20:12.925Z,31.67
2023-03-20T05:22:41.810Z,44.93
2023-03-20T05:25:10.326Z,35.97
2023-03-20T05:27:40.664Z,38.33
2023-03-20T05:30:18.047Z,46.77
2023-03-20T05:32:46.388Z,40.80
2023-03-20T05:35:14.699Z,33.23
2023-03-20T05:37:51.046Z,48.67
2023-03-20T05:40:24.377Z,39.33
2023-03-20T05:42:55.144Z,39.90
2023-03-20T05:45:23.606Z,52.57
2023-03-20T05:47:51.717Z,36.50
2023-03-20T05:50:27.266Z,44.23
2023-03-20T05:52:57.452Z,43.70
2023-03-20T05:55:27.978Z,48.47
2023-03-20T05:57:57.035Z,39.93
2023-03-20T06:00:25.505Z,43.13
2023-03-20T06:02:54.485Z,43.47
2023-03-20T06:05:22.623Z,38.30
2023-03-20T06:07:55.793Z,43.63
2023-03-20T06:10:30.428Z,41.23
2023-03-20T06:13:01.271Z,41.90
2023-03-20T06:15:30.159Z,42.53
2023-03-20T06:18:02.434Z,36.20
2023-03-20T06:20:31.878Z,53.60
2023-03-20T06:23:00.031Z,39.33
2023-03-20T06:25:28.099Z,49.47
2023-03-20T06:27:56.222Z,38.57
2023-03-20T06:30:33.246Z,52.57
2023-03-20T06:33:02.035Z,42.03
2023-03-20T06:35:31.732Z,45.83
2023-03-20T06:38:00.886Z,40.70
2023-03-20T06:40:29.174Z,51.07
2023-03-20T06:42:58.014Z,45.27
2023-03-20T06:45:26.439Z,40.10
2023-03-20T06:47:57.811Z,47.97
2023-03-20T06:50:27.499Z,34.87
2023-03-20T06:52:56.037Z,46.57
2023-03-20T06:55:24.637Z,33.57
2023-03-20T06:57:53.065Z,37.93
2023-03-20T07:00:23.190Z,37.07
2023-03-20T07:02:51.276Z,42.40
2023-03-20T07:05:19.382Z,43.07
2023-03-20T07:07:52.386Z,43.37
2023-03-20T07:10:20.856Z,51.50
2023-03-20T07:12:50.787Z,50.93
2023-03-20T07:15:19.372Z,40.73
2023-03-20T07:17:48.562Z,42.90
2023-03-20T07:20:20.341Z,39.03
2023-03-20T07:22:49.602Z,34.80
2023-03-20T07:25:22.009Z,42.63
2023-03-20T07:28:00.032Z,44.27
2023-03-20T07:30:32.928Z,39.77
2023-03-20T07:33:01.445Z,43.87
2023-03-20T07:35:29.660Z,36.10
2023-03-20T07:37:58.606Z,37.73
2023-03-20T07:40:27.490Z,43.70
2023-03-20T07:42:55.783Z,35.97
2023-03-20T07:45:24.183Z,30.67
2023-03-20T07:47:52.277Z,38.43
2023-03-20T07:50:20.606Z,31.53
2023-03-20T07:52:49.812Z,24.83
2023-03-20T07:55:18.747Z,37.40
2023-03-20T07:57:49.745Z,28.23
2023-03-20T08:00:19.705Z,33.47
2023-03-20T08:02:51.664Z,32.77
2023-03-20T08:05:21.442Z,31.90
2023-03-20T08:07:51.740Z,29.97
2023-03-20T08:10:20.114Z,23.83
2023-03-20T08:12:49.033Z,28.07
2023-03-20T08:15:17.766Z,42.20
2023-03-20T08:17:46.260Z,30.20
2023-03-20T08:20:16.854Z,37.50
2023-03-20T08:22:45.715Z,33.57
2023-03-20T08:25:13.877Z,32.43
2023-03-20T08:27:42.088Z,31.87
2023-03-20T08:30:13.797Z,32.20
2023-03-20T08:32:59.316Z,39.10
2023-03-20T08:35:45.572Z,30.87
2023-03-20T08:38:15.796Z,30.43
2023-03-20T08:40:44.079Z,32.33
2023-03-20T08:43:12.247Z,25.73
2023-03-20T08:45:48.249Z,33.37
2023-03-20T08:48:18.009Z,34.40
2023-03-20T08:50:52.304Z,37.10
2023-03-20T08:53:22.991Z,28.43
2023-03-20T08:55:51.858Z,33.60
2023-03-20T08:58:21.760Z,39.63
2023-03-20T09:00:50.126Z,40.00
2023-03-20T09:03:23.071Z,30.63
2023-03-20T09:05:52.920Z,33.57
2023-03-20T09:08:21.955Z,29.07
2023-03-20T09:10:54.082Z,31.73
2023-03-20T09:13:27.852Z,32.97
2023-03-20T09:16:01.110Z,27.57
2023-03-20T09:18:29.882Z,23.47
2023-03-20T09:20:58.213Z,30.50
2023-03-20T09:23:29.884Z,35.13
2023-03-20T09:25:58.188Z,35.43
2023-03-20T09:28:27.702Z,22.67
2023-03-20T09:30:57.578Z,27.97
2023-03-20T09:33:26.693Z,26.90
2023-03-20T09:35:54.951Z,24.10
2023-03-20T09:38:24.822Z,27.53
2023-03-20T09:40:57.366Z,29.40
2023-03-20T09:43:57.977Z,31.10
2023-03-20T09:46:50.064Z,33.27
2023-03-20T09:49:30.424Z,31.67
2023-03-20T09:52:00.841Z,25.43
2023-03-20T09:54:51.003Z,32.03
2023-03-20T09:57:28.002Z,40.60
2023-03-20T09:59:59.886Z,35.80
2023-03-20T10:02:41.411Z,31.43
2023-03-20T10:05:22.305Z,30.23
2023-03-20T10:08:01.577Z,35.20
2023-03-20T10:10:53.484Z,38.47
2023-03-20T10:13:54.330Z,37.57
2023-03-20T10:16:44.113Z,33.60
2023-03-20T10:19:29.424Z,32.20
2023-03-20T10:22:03.558Z,36.33
2023-03-20T10:24:40.476Z,32.70
2023-03-20T10:27:21.966Z,27.50
2023-03-20T10:30:11.919Z,38.37
2023-03-20T10:32:57.819Z,30.60
2023-03-20T10:35:51.181Z,38.63
2023-03-20T10:38:26.167Z,28.23
2023-03-20T10:40:58.338Z,32.27
2023-03-20T10:43:33.203Z,34.43
2023-03-20T10:46:04.632Z,33.30
2023-03-20T10:48:46.341Z,40.93
2023-03-20T10:51:30.290Z,38.83
2023-03-20T10:54:01.660Z,36.37
2023-03-20T10:56:44.893Z,36.40
2023-03-20T10:59:28.073Z,33.77
2023-03-20T11:01:56.329Z,36.50
2023-03-20T11:04:24.367Z,35.67
2023-03-20T11:07:03.815Z,33.33
2023-03-20T11:09:34.480Z,39.07
2023-03-20T11:12:03.818Z,41.63
2023-03-20T11:14:40.092Z,30.33
2023-03-20T11:17:11.623Z,39.00
2023-03-20T11:19:42.273Z,35.57
2023-03-20T11:22:30.385Z,35.27
2023-03-20T11:25:03.135Z,36.10
2023-03-20T11:27:33.492Z,31.47
2023-03-20T11:30:07.692Z,37.93
2023-03-20T11:32:47.306Z,43.67
2023-03-20T11:35:27.837Z,32.50
2023-03-20T11:38:13.080Z,26.30
2023-03-20T11:40:41.478Z,30.87
2023-03-20T11:43:14.250Z,34.33
2023-03-20T11:45:45.791Z,32.03
2023-03-20T11:48:47.273Z,26.57
2023-03-20T11:51:19.643Z,29.23
2023-03-20T11:54:02.735Z,24.33
2023-03-20T11:56:34.158Z,32.97
2023-03-20T11:59:08.177Z,29.57
2023-03-20T12:01:47.367Z,24.10
2023-03-20T12:04:28.559Z,30.87
2023-03-20T12:07:05.382Z,26.80
2023-03-20T12:09:43.218Z,26.13
2023-03-20T12:12:36.461Z,30.83
2023-03-20T12:15:13.749Z,33.40
2023-03-20T12:17:48.439Z,26.17
2023-03-20T12:20:27.981Z,31.37
2023-03-20T12:23:28.562Z,33.40
2023-03-20T12:26:05.202Z,28.67
2023-03-20T12:28:43.826Z,31.83
2023-03-20T12:31:47.213Z,23.87
2023-03-20T12:34:47.371Z,27.70
2023-03-20T12:37:18.612Z,25.47
2023-03-20T12:39:55.190Z,25.17
2023-03-20T12:42:41.618Z,26.77
2023-03-20T12:45:19.200Z,26.03
2023-03-20T12:48:08.218Z,33.67
2023-03-20T12:50:48.869Z,19.13
2023-03-20T12:53:32.204Z,26.97
2023-03-20T12:56:29.894Z,22.37
2023-03-20T12:59:38.169Z,23.27
2023-03-20T13:02:45.294Z,22.33
2023-03-20T13:05:25.420Z,25.13
2023-03-20T13:08:14.595Z,26.87
2023-03-20T13:10:57.955Z,26.83
2023-03-20T13:14:09.334Z,24.80
2023-03-20T13:16:49.080Z,29.50
2023-03-20T13:19:25.100Z,30.00
2023-03-20T13:21:56.936Z,29.73
2023-03-20T13:24:55.617Z,27.17
2023-03-20T13:27:40.093Z,28.47
2023-03-20T13:30:30.087Z,25.93
2023-03-20T13:33:11.275Z,28.57
2023-03-20T13:36:14.472Z,26.37
2023-03-20T13:38:47.428Z,26.27
2023-03-20T13:41:35.822Z,27.63
2023-03-20T13:44:06.855Z,26.13
2023-03-20T13:47:13.551Z,31.20
2023-03-20T13:49:54.583Z,25.70
2023-03-20T13:52:36.073Z,30.43
2023-03-20T13:55:42.940Z,35.73
2023-03-20T13:58:49.905Z,33.13
2023-03-20T14:01:36.394Z,24.87
2023-03-20T14:04:13.789Z,29.83
2023-03-20T14:07:00.317Z,26.57
2023-03-20T14:09:34.459Z,36.33
2023-03-20T14:12:06.069Z,29.73
2023-03-20T14:14:52.972Z,26.83
2023-03-20T14:17:28.558Z,23.13
2023-03-20T14:19:59.649Z,26.73
2023-03-20T14:22:34.864Z,26.70
2023-03-20T14:25:40.514Z,24.50
2023-03-20T14:28:15.352Z,26.00
2023-03-20T14:30:46.336Z,26.27
2023-03-20T14:33:23.039Z,34.73
2023-03-20T14:36:18.612Z,26.70
2023-03-20T14:38:54.861Z,30.27
2023-03-20T14:41:29.294Z,31.07
2023-03-20T14:44:32.372Z,39.40
2023-03-20T14:47:23.796Z,34.80
2023-03-20T14:50:26.307Z,23.77
2023-03-20T14:53:18.577Z,30.07
2023-03-20T14:56:04.563Z,28.60
2023-03-20T14:58:53.846Z,27.90
2023-03-20T15:01:22.238Z,29.53
2023-03-20T15:04:05.223Z,30.33
2023-03-20T15:06:34.585Z,31.20
2023-03-20T15:09:09.380Z,27.27
2023-03-20T15:11:39.524Z,30.80
2023-03-20T15:14:28.837Z,26.73
2023-03-20T15:17:01.550Z,27.93
2023-03-20T15:19:31.029Z,33.70
2023-03-20T15:22:00.934Z,35.60
2023-03-20T15:24:30.304Z,33.50
2023-03-20T15:27:05.914Z,34.73
2023-03-20T15:29:35.550Z,36.83
2023-03-20T15:32:14.495Z,28.00
2023-03-20T15:34:44.419Z,29.43
2023-03-20T15:37:17.198Z,33.57
2023-03-20T15:39:56.567Z,30.77
2023-03-20T15:42:27.383Z,33.17
2023-03-20T15:44:57.161Z,34.47
2023-03-20T15:47:26.401Z,30.97
2023-03-20T15:50:00.702Z,32.17
2023-03-20T15:52:41.502Z,40.20
2023-03-20T15:55:17.186Z,34.40
2023-03-20T15:57:47.737Z,33.20
2023-03-20T16:00:21.561Z,36.07
2023-03-20T16:02:51.345Z,28.87
2023-03-20T16:05:20.717Z,35.03
2023-03-20T16:07:49.172Z,35.53
2023-03-20T16:10:36.668Z,33.47
2023-03-20T16:13:07.487Z,29.67
2023-03-20T16:15:36.791Z,35.93
2023-03-20T16:18:07.193Z,42.07
2023-03-20T16:20:41.125Z,30.03
2023-03-20T16:23:09.818Z,33.30
2023-03-20T16:25:38.583Z,39.67
2023-03-20T16:28:07.621Z,35.43
2023-03-20T16:30:37.584Z,35.87
2023-03-20T16:33:09.545Z,29.57
2023-03-20T16:35:42.996Z,34.37
2023-03-20T16:38:24.658Z,54.67
2023-03-20T16:41:32.335Z,46.37
2023-03-20T16:44:07.638Z,42.50
2023-03-20T16:46:36.552Z,39.03
2023-03-20T16:49:27.703Z,49.97
2023-03-20T16:52:01.217Z,48.97
2023-03-20T16:54:33.397Z,55.30
2023-03-20T16:57:04.340Z,40.20
2023-03-20T16:59:32.312Z,40.73
2023-03-20T17:02:02.055Z,44.77
2023-03-20T17:04:36.446Z,33.10
2023-03-20T17:07:18.727Z,49.87
2023-03-20T17:10:17.105Z,45.53
2023-03-20T17:12:48.182Z,46.67
2023-03-20T17:15:19.082Z,38.50
2023-03-20T17:17:49.697Z,45.43
2023-03-20T17:20:23.511Z,41.53
2023-03-20T17:22:52.197Z,41.70
2023-03-20T17:25:20.904Z,36.70
2023-03-20T17:27:49.984Z,41.70
2023-03-20T17:30:27.983Z,35.00
2023-03-20T17:33:00.246Z,63.80
2023-03-20T17:35:28.227Z,46.83
2023-03-20T17:37:56.880Z,53.30
2023-03-20T17:40:27.636Z,46.30
2023-03-20T17:42:58.541Z,48.40
2023-03-20T17:45:26.524Z,49.80
2023-03-20T17:47:58.041Z,57.73
2023-03-20T17:50:27.853Z,58.67
2023-03-20T17:52:56.414Z,46.30
2023-03-20T17:55:27.303Z,48.03
2023-03-20T17:57:55.543Z,45.70
2023-03-20T18:00:29.544Z,57.80
2023-03-20T18:02:58.040Z,46.33
2023-03-20T18:05:28.655Z,54.63
2023-03-20T18:07:56.983Z,37.90
2023-03-20T18:10:29.258Z,41.27
2023-03-20T18:12:57.229Z,43.30
2023-03-20T18:15:26.501Z,47.30
2023-03-20T18:17:54.922Z,42.57
2023-03-20T18:20:23.214Z,61.47
2023-03-20T18:22:51.313Z,54.60
2023-03-20T18:25:22.754Z,46.53
2023-03-20T18:27:53.902Z,48.80
2023-03-20T18:30:25.984Z,60.60
2023-03-20T18:32:54.234Z,49.50
2023-03-20T18:35:22.542Z,41.90
2023-03-20T18:37:50.916Z,46.57
2023-03-20T18:40:30.549Z,64.77
2023-03-20T18:42:59.891Z,96.50
2023-03-20T18:45:29.787Z,53.93
2023-03-20T18:48:20.065Z,100.10
2023-03-20T18:50:51.199Z,106.67
2023-03-20T18:53:20.774Z,134.13
2023-03-20T18:55:48.554Z,132.53
2023-03-20T18:58:28.294Z,117.63
2023-03-20T19:00:57.693Z,132.03
2023-03-20T19:03:28.857Z,132.53
2023-03-20T19:05:59.857Z,152.63
2023-03-20T19:08:27.987Z,135.43
2023-03-20T19:11:04.352Z,105.10
2023-03-20T19:13:34.590Z,92.30
2023-03-20T19:16:02.884Z,92.40
2023-03-20T19:18:34.523Z,128.70
2023-03-20T19:21:02.634Z,109.77
2023-03-20T19:23:32.228Z,119.33
2023-03-20T19:26:04.968Z,144.67
2023-03-20T19:28:41.531Z,127.37
2023-03-20T19:31:13.110Z,129.60
2023-03-20T19:33:41.772Z,120.60
2023-03-20T19:36:34.758Z,138.20
2023-03-20T19:39:06.262Z,149.23
2023-03-20T19:41:35.469Z,140.80
2023-03-20T19:44:07.246Z,166.30
2023-03-20T19:46:41.035Z,132.53
2023-03-20T19:49:19.039Z,117.13
2023-03-20T19:51:48.505Z,91.77
2023-03-20T19:54:23.625Z,88.37
2023-03-20T19:56:53.362Z,89.60
2023-03-20T19:59:25.752Z,79.80
2023-03-20T20:01:55.238Z,84.23
2023-03-20T20:04:25.875Z,80.27
2023-03-20T20:06:55.783Z,76.83
2023-03-20T20:09:32.790Z,87.37
2023-03-20T20:12:08.911Z,86.73
2023-03-20T20:14:44.180Z,79.90
2023-03-20T20:17:12.963Z,74.97
2023-03-20T20:19:41.416Z,85.73
2023-03-20T20:22:22.554Z,92.00
2023-03-20T20:24:54.481Z,93.53
2023-03-20T20:27:23.247Z,96.20
2023-03-20T20:29:53.997Z,117.47
2023-03-20T20:32:25.903Z,112.43
2023-03-20T20:40:33.522Z,294.50
2023-03-20T20:43:10.126Z,195.17
2023-03-20T20:45:44.789Z,164.00
2023-03-20T20:48:19.263Z,176.40
2023-03-20T20:50:48.461Z,180.67
2023-03-20T20:53:17.252Z,192.50
2023-03-20T20:55:46.024Z,200.20
2023-03-20T20:58:18.342Z,162.17
2023-03-20T21:00:51.966Z,173.97
2023-03-20T21:03:22.846Z,163.03
2023-03-20T21:05:53.290Z,175.70
2023-03-20T21:08:23.291Z,174.90
2023-03-20T21:10:55.696Z,167.63
2023-03-20T21:13:24.479Z,182.20
2023-03-20T21:16:00.862Z,155.03
2023-03-20T21:18:29.324Z,162.67
2023-03-20T21:21:11.492Z,163.17
2023-03-20T21:23:39.787Z,155.17
2023-03-20T21:26:10.715Z,149.73
2023-03-20T21:28:38.984Z,135.23
2023-03-20T21:31:24.057Z,132.47
2023-03-20T21:33:54.879Z,122.23
2023-03-20T21:36:38.643Z,114.13
2023-03-20T21:39:09.986Z,140.70
2023-03-20T21:41:40.244Z,106.33
2023-03-20T21:44:17.161Z,117.67
2023-03-20T21:56:12.677Z,169.67
2023-03-20T21:58:56.398Z,130.43
2023-03-20T22:01:29.426Z,136.90
2023-03-20T22:04:37.657Z,139.07
2023-03-20T22:13:08.587Z,113.83
2023-03-20T22:30:02.579Z,150.60
2023-03-20T22:38:34.523Z,110.90
2023-03-20T22:41:18.302Z,125.97
2023-03-20T22:46:28.802Z,183.97
2023-03-20T22:48:54.069Z,100.17
2023-03-20T22:51:28.700Z,146.87
2023-03-20T22:54:03.046Z,120.17
2023-03-20T22:56:34.042Z,153.93
2023-03-20T22:59:02.179Z,118.50
2023-03-20T23:01:30.549Z,134.73
2023-03-20T23:03:59.901Z,190.70
2023-03-20T23:06:31.718Z,177.10
2023-03-20T23:09:05.689Z,167.47
2023-03-20T23:11:38.345Z,163.83
2023-03-20T23:14:21.610Z,112.27
2023-03-20T23:16:51.500Z,169.37
2023-03-20T23:19:20.852Z,167.97
2023-03-20T23:21:49.616Z,146.93
2023-03-20T23:24:18.007Z,128.57
2023-03-20T23:26:46.437Z,132.17
2023-03-20T23:29:14.659Z,123.70
2023-03-20T23:31:42.924Z,101.37
2023-03-20T23:34:10.992Z,124.73
2023-03-20T23:36:39.314Z,120.37
2023-03-20T23:39:11.653Z,144.23
2023-03-20T23:44:28.841Z,102.93
2023-03-20T23:47:03.322Z,131.73
2023-03-20T23:49:33.871Z,102.43
2023-03-20T23:52:04.927Z,97.20
2023-03-20T23:54:32.952Z,87.07
2023-03-20T23:57:01.199Z,85.40
2023-03-20T23:59:30.740Z,88.17
